sensor_id;sensor_type;location;lat;lon;timestamp;pressure;altitude;pressure_sealevel;temperature;humidity
24620;BME280;12763;55.802;37.404;2022-12-18T00:01:42;99026.44;;;-1.22;91.09
24620;BME280;12763;55.802;37.404;2022-12-18T00:04:18;99011.06;;;-1.39;90.85
24620;BME280;12763;55.802;37.404;2022-12-18T00:06:45;99003.09;;;-1.40;91.00
24620;BME280;12763;55.802;37.404;2022-12-18T00:09:11;99007.25;;;-1.46;90.73
24620;BME280;12763;55.802;37.404;2022-12-18T00:11:36;98992.06;;;-1.47;91.14
24620;BME280;12763;55.802;37.404;2022-12-18T00:14:02;98987.63;;;-1.48;91.49
24620;BME280;12763;55.802;37.404;2022-12-18T00:16:29;98982.53;;;-1.51;91.19
24620;BME280;12763;55.802;37.404;2022-12-18T00:18:57;98992.53;;;-1.69;91.20
24620;BME280;12763;55.802;37.404;2022-12-18T00:21:22;98977.50;;;-1.46;91.08
24620;BME280;12763;55.802;37.404;2022-12-18T00:23:49;98981.44;;;-1.40;90.85
24620;BME280;12763;55.802;37.404;2022-12-18T00:26:35;98973.34;;;-1.58;91.12
24620;BME280;12763;55.802;37.404;2022-12-18T00:29:12;98964.81;;;-1.63;91.44
24620;BME280;12763;55.802;37.404;2022-12-18T00:31:39;98968.88;;;-1.67;91.81
24620;BME280;12763;55.802;37.404;2022-12-18T00:34:05;98973.41;;;-1.67;91.34
24620;BME280;12763;55.802;37.404;2022-12-18T00:36:33;98956.81;;;-1.55;91.14
24620;BME280;12763;55.802;37.404;2022-12-18T00:39:02;98961.56;;;-1.49;91.32
24620;BME280;12763;55.802;37.404;2022-12-18T00:41:28;98951.56;;;-1.74;91.49
24620;BME280;12763;55.802;37.404;2022-12-18T00:44:15;98958.13;;;-1.59;90.97
24620;BME280;12763;55.802;37.404;2022-12-18T00:46:43;98953.63;;;-1.68;91.80
24620;BME280;12763;55.802;37.404;2022-12-18T00:49:09;98943.34;;;-1.47;91.10
24620;BME280;12763;55.802;37.404;2022-12-18T00:51:37;98947.28;;;-1.59;90.47
24620;BME280;12763;55.802;37.404;2022-12-18T00:54:03;98941.88;;;-1.41;89.80
24620;BME280;12763;55.802;37.404;2022-12-18T00:56:30;98939.41;;;-1.52;89.48
24620;BME280;12763;55.802;37.404;2022-12-18T00:58:55;98937.94;;;-1.47;89.67
24620;BME280;12763;55.802;37.404;2022-12-18T01:01:21;98933.50;;;-1.48;89.18
24620;BME280;12763;55.802;37.404;2022-12-18T01:03:47;98931.59;;;-1.73;89.94
24620;BME280;12763;55.802;37.404;2022-12-18T01:06:16;98924.16;;;-1.53;89.44
24620;BME280;12763;55.802;37.404;2022-12-18T01:08:42;98918.78;;;-1.71;89.41
24620;BME280;12763;55.802;37.404;2022-12-18T01:11:14;98929.94;;;-1.74;90.57
24620;BME280;12763;55.802;37.404;2022-12-18T01:13:41;98915.50;;;-1.57;89.53
24620;BME280;12763;55.802;37.404;2022-12-18T01:16:08;98914.81;;;-1.59;90.25
24620;BME280;12763;55.802;37.404;2022-12-18T01:18:35;98911.69;;;-1.72;89.46
24620;BME280;12763;55.802;37.404;2022-12-18T01:21:00;98902.34;;;-1.77;90.01
24620;BME280;12763;55.802;37.404;2022-12-18T01:23:30;98899.31;;;-1.92;91.15
24620;BME280;12763;55.802;37.404;2022-12-18T01:25:56;98899.94;;;-1.98;91.33
24620;BME280;12763;55.802;37.404;2022-12-18T01:28:21;98910.38;;;-1.86;90.72
24620;BME280;12763;55.802;37.404;2022-12-18T01:30:47;98910.13;;;-1.92;91.41
24620;BME280;12763;55.802;37.404;2022-12-18T01:33:13;98907.75;;;-1.77;90.68
24620;BME280;12763;55.802;37.404;2022-12-18T01:35:42;98902.13;;;-2.02;91.24
24620;BME280;12763;55.802;37.404;2022-12-18T01:38:08;98904.06;;;-1.94;90.79
24620;BME280;12763;55.802;37.404;2022-12-18T01:40:34;98896.00;;;-1.86;90.16
24620;BME280;12763;55.802;37.404;2022-12-18T01:43:00;98903.13;;;-2.03;89.67
24620;BME280;12763;55.802;37.404;2022-12-18T01:45:28;98903.03;;;-1.93;90.07
24620;BME280;12763;55.802;37.404;2022-12-18T01:48:03;98898.78;;;-1.96;90.14
24620;BME280;12763;55.802;37.404;2022-12-18T01:50:36;98898.63;;;-1.94;90.50
24620;BME280;12763;55.802;37.404;2022-12-18T01:53:21;98906.34;;;-1.82;88.99
24620;BME280;12763;55.802;37.404;2022-12-18T01:55:56;98899.94;;;-1.98;89.20
24620;BME280;12763;55.802;37.404;2022-12-18T01:59:09;98912.22;;;-1.86;89.06
24620;BME280;12763;55.802;37.404;2022-12-18T02:01:16;98893.31;;;-2.21;90.14
24620;BME280;12763;55.802;37.404;2022-12-18T02:03:43;98891.13;;;-2.18;89.67
24620;BME280;12763;55.802;37.404;2022-12-18T02:08:53;98895.16;;;-2.04;90.52
24620;BME280;12763;55.802;37.404;2022-12-18T02:14:29;98893.69;;;-2.16;92.31
24620;BME280;12763;55.802;37.404;2022-12-18T02:17:23;98902.81;;;-2.17;92.17
24620;BME280;12763;55.802;37.404;2022-12-18T02:28:21;98915.25;;;-2.24;90.20
24620;BME280;12763;55.802;37.404;2022-12-18T02:30:51;98909.53;;;-2.21;90.99
24620;BME280;12763;55.802;37.404;2022-12-18T02:33:20;98900.16;;;-2.09;90.72
24620;BME280;12763;55.802;37.404;2022-12-18T02:35:52;98895.59;;;-2.26;89.41
24620;BME280;12763;55.802;37.404;2022-12-18T02:38:20;98897.41;;;-2.35;89.82
24620;BME280;12763;55.802;37.404;2022-12-18T02:40:50;98897.25;;;-2.16;89.36
24620;BME280;12763;55.802;37.404;2022-12-18T02:43:17;98898.56;;;-2.02;88.82
24620;BME280;12763;55.802;37.404;2022-12-18T02:45:53;98911.50;;;-2.23;88.94
24620;BME280;12763;55.802;37.404;2022-12-18T02:48:23;98907.06;;;-2.32;88.46
24620;BME280;12763;55.802;37.404;2022-12-18T02:51:11;98907.81;;;-2.22;88.63
24620;BME280;12763;55.802;37.404;2022-12-18T02:53:45;98908.00;;;-2.24;88.66
24620;BME280;12763;55.802;37.404;2022-12-18T02:56:19;98908.03;;;-2.33;88.79
24620;BME280;12763;55.802;37.404;2022-12-18T02:58:52;98914.88;;;-2.57;90.25
24620;BME280;12763;55.802;37.404;2022-12-18T03:01:51;98908.72;;;-2.31;90.42
24620;BME280;12763;55.802;37.404;2022-12-18T03:04:30;98906.31;;;-2.52;90.52
24620;BME280;12763;55.802;37.404;2022-12-18T03:07:02;98913.53;;;-2.25;89.97
24620;BME280;12763;55.802;37.404;2022-12-18T03:09:37;98893.22;;;-2.47;89.57
24620;BME280;12763;55.802;37.404;2022-12-18T03:12:15;98893.47;;;-2.41;89.23
24620;BME280;12763;55.802;37.404;2022-12-18T03:14:58;98892.66;;;-2.51;90.09
24620;BME280;12763;55.802;37.404;2022-12-18T03:17:27;98888.97;;;-2.50;89.69
24620;BME280;12763;55.802;37.404;2022-12-18T03:19:58;98889.56;;;-2.56;89.72
24620;BME280;12763;55.802;37.404;2022-12-18T03:22:27;98885.81;;;-2.72;89.72
24620;BME280;12763;55.802;37.404;2022-12-18T03:24:56;98899.59;;;-2.66;91.43
24620;BME280;12763;55.802;37.404;2022-12-18T03:27:24;98888.47;;;-2.63;90.82
24620;BME280;12763;55.802;37.404;2022-12-18T03:30:15;98888.97;;;-2.50;90.55
24620;BME280;12763;55.802;37.404;2022-12-18T03:32:56;98904.88;;;-2.47;89.96
24620;BME280;12763;55.802;37.404;2022-12-18T03:35:28;98907.19;;;-2.52;90.03
24620;BME280;12763;55.802;37.404;2022-12-18T03:37:55;98917.38;;;-2.73;89.38
24620;BME280;12763;55.802;37.404;2022-12-18T03:40:31;98914.78;;;-2.38;89.66
24620;BME280;12763;55.802;37.404;2022-12-18T03:43:03;98896.38;;;-2.52;89.85
24620;BME280;12763;55.802;37.404;2022-12-18T03:45:43;98892.78;;;-2.70;89.80
24620;BME280;12763;55.802;37.404;2022-12-18T03:48:17;98893.63;;;-2.69;90.05
24620;BME280;12763;55.802;37.404;2022-12-18T03:50:57;98902.97;;;-2.64;90.87
24620;BME280;12763;55.802;37.404;2022-12-18T03:56:03;98896.38;;;-2.79;91.40
24620;BME280;12763;55.802;37.404;2022-12-18T03:58:36;98901.13;;;-2.90;92.43
24620;BME280;12763;55.802;37.404;2022-12-18T04:01:15;98901.75;;;-2.79;92.79
24620;BME280;12763;55.802;37.404;2022-12-18T04:03:44;98889.22;;;-2.70;91.31
24620;BME280;12763;55.802;37.404;2022-12-18T04:06:11;98888.50;;;-2.90;91.51
24620;BME280;12763;55.802;37.404;2022-12-18T04:08:40;98900.38;;;-2.83;91.27
24620;BME280;12763;55.802;37.404;2022-12-18T04:11:08;98907.97;;;-2.69;91.11
24620;BME280;12763;55.802;37.404;2022-12-18T04:13:36;98912.47;;;-2.87;93.09
24620;BME280;12763;55.802;37.404;2022-12-18T04:16:06;98927.47;;;-3.02;92.04
24620;BME280;12763;55.802;37.404;2022-12-18T04:18:31;98928.19;;;-2.73;90.87
24620;BME280;12763;55.802;37.404;2022-12-18T04:20:59;98926.78;;;-2.77;91.44
24620;BME280;12763;55.802;37.404;2022-12-18T04:23:25;98935.38;;;-2.64;90.01
24620;BME280;12763;55.802;37.404;2022-12-18T04:25:55;98944.78;;;-2.68;89.83
24620;BME280;12763;55.802;37.404;2022-12-18T04:28:35;98958.06;;;-2.84;89.53
24620;BME280;12763;55.802;37.404;2022-12-18T04:31:02;98965.03;;;-2.81;89.87
24620;BME280;12763;55.802;37.404;2022-12-18T04:33:27;98983.00;;;-2.90;89.99
24620;BME280;12763;55.802;37.404;2022-12-18T04:35:53;98986.19;;;-2.77;90.06
24620;BME280;12763;55.802;37.404;2022-12-18T04:38:19;98980.41;;;-2.82;89.89
24620;BME280;12763;55.802;37.404;2022-12-18T04:40:50;98966.47;;;-2.87;90.19
24620;BME280;12763;55.802;37.404;2022-12-18T04:43:23;98965.78;;;-2.62;88.73
24620;BME280;12763;55.802;37.404;2022-12-18T04:45:49;98988.41;;;-2.90;88.59
24620;BME280;12763;55.802;37.404;2022-12-18T04:48:14;98967.31;;;-2.86;88.97
24620;BME280;12763;55.802;37.404;2022-12-18T04:50:40;98973.59;;;-2.86;88.43
24620;BME280;12763;55.802;37.404;2022-12-18T04:53:06;98983.59;;;-2.69;88.89
24620;BME280;12763;55.802;37.404;2022-12-18T04:55:32;98960.97;;;-2.95;89.25
24620;BME280;12763;55.802;37.404;2022-12-18T04:57:58;98983.22;;;-2.83;88.81
24620;BME280;12763;55.802;37.404;2022-12-18T05:00:23;98958.81;;;-2.91;89.24
24620;BME280;12763;55.802;37.404;2022-12-18T05:02:49;98971.47;;;-2.92;89.68
24620;BME280;12763;55.802;37.404;2022-12-18T05:05:15;98976.09;;;-2.75;89.42
24620;BME280;12763;55.802;37.404;2022-12-18T05:07:41;98982.44;;;-2.93;88.83
24620;BME280;12763;55.802;37.404;2022-12-18T05:10:07;98985.69;;;-2.90;88.84
24620;BME280;12763;55.802;37.404;2022-12-18T05:12:33;98970.94;;;-2.95;88.65
24620;BME280;12763;55.802;37.404;2022-12-18T05:14:59;99003.06;;;-3.12;88.85
24620;BME280;12763;55.802;37.404;2022-12-18T05:17:25;98993.47;;;-2.87;88.36
24620;BME280;12763;55.802;37.404;2022-12-18T05:19:51;98982.94;;;-2.80;87.57
24620;BME280;12763;55.802;37.404;2022-12-18T05:22:16;98992.25;;;-3.12;87.62
24620;BME280;12763;55.802;37.404;2022-12-18T05:24:42;98993.97;;;-3.20;87.55
24620;BME280;12763;55.802;37.404;2022-12-18T05:27:08;98998.22;;;-2.99;87.39
24620;BME280;12763;55.802;37.404;2022-12-18T05:29:34;99017.06;;;-2.89;86.17
24620;BME280;12763;55.802;37.404;2022-12-18T05:31:59;99016.88;;;-3.24;86.05
24620;BME280;12763;55.802;37.404;2022-12-18T05:34:25;99019.81;;;-3.08;86.94
24620;BME280;12763;55.802;37.404;2022-12-18T05:36:51;99029.06;;;-3.11;86.80
24620;BME280;12763;55.802;37.404;2022-12-18T05:39:17;99041.13;;;-3.05;85.62
24620;BME280;12763;55.802;37.404;2022-12-18T05:41:42;99034.69;;;-2.85;85.06
24620;BME280;12763;55.802;37.404;2022-12-18T05:44:08;99039.88;;;-3.11;85.27
24620;BME280;12763;55.802;37.404;2022-12-18T05:46:34;99038.44;;;-3.15;85.55
24620;BME280;12763;55.802;37.404;2022-12-18T05:49:00;99053.63;;;-3.04;85.60
24620;BME280;12763;55.802;37.404;2022-12-18T05:51:26;99042.72;;;-3.12;84.72
24620;BME280;12763;55.802;37.404;2022-12-18T05:53:52;99055.34;;;-3.22;85.33
24620;BME280;12763;55.802;37.404;2022-12-18T05:56:20;99051.47;;;-3.01;85.88
24620;BME280;12763;55.802;37.404;2022-12-18T05:58:46;99051.09;;;-3.15;87.03
24620;BME280;12763;55.802;37.404;2022-12-18T06:01:18;99057.63;;;-3.08;87.32
24620;BME280;12763;55.802;37.404;2022-12-18T06:03:44;99058.34;;;-3.16;87.20
24620;BME280;12763;55.802;37.404;2022-12-18T06:06:14;99062.88;;;-3.16;87.39
24620;BME280;12763;55.802;37.404;2022-12-18T06:08:41;99072.13;;;-3.19;88.50
24620;BME280;12763;55.802;37.404;2022-12-18T06:11:06;99072.25;;;-3.20;88.98
24620;BME280;12763;55.802;37.404;2022-12-18T06:13:32;99081.19;;;-3.01;88.96
24620;BME280;12763;55.802;37.404;2022-12-18T06:16:02;99075.81;;;-3.29;90.98
24620;BME280;12763;55.802;37.404;2022-12-18T06:18:27;99082.19;;;-3.11;89.59
24620;BME280;12763;55.802;37.404;2022-12-18T06:20:56;99101.50;;;-2.97;89.84
24620;BME280;12763;55.802;37.404;2022-12-18T06:23:23;99102.63;;;-3.09;89.56
24620;BME280;12763;55.802;37.404;2022-12-18T06:25:49;99110.63;;;-3.07;89.22
24620;BME280;12763;55.802;37.404;2022-12-18T06:28:14;99113.56;;;-3.01;88.52
24620;BME280;12763;55.802;37.404;2022-12-18T06:30:43;99109.59;;;-3.06;87.35
24620;BME280;12763;55.802;37.404;2022-12-18T06:33:09;99107.63;;;-3.04;89.19
24620;BME280;12763;55.802;37.404;2022-12-18T06:35:34;99104.09;;;-3.24;89.10
24620;BME280;12763;55.802;37.404;2022-12-18T06:38:01;99106.63;;;-3.13;88.32
24620;BME280;12763;55.802;37.404;2022-12-18T06:40:27;99118.28;;;-3.22;87.31
24620;BME280;12763;55.802;37.404;2022-12-18T06:42:53;99130.22;;;-2.95;87.05
24620;BME280;12763;55.802;37.404;2022-12-18T06:45:19;99149.25;;;-3.16;86.92
24620;BME280;12763;55.802;37.404;2022-12-18T06:47:44;99145.81;;;-3.28;86.91
24620;BME280;12763;55.802;37.404;2022-12-18T06:50:11;99133.34;;;-3.10;86.17
24620;BME280;12763;55.802;37.404;2022-12-18T06:52:37;99163.59;;;-3.06;85.62
24620;BME280;12763;55.802;37.404;2022-12-18T06:55:04;99159.06;;;-3.15;85.22
24620;BME280;12763;55.802;37.404;2022-12-18T06:57:30;99162.59;;;-3.05;85.71
24620;BME280;12763;55.802;37.404;2022-12-18T06:59:56;99154.09;;;-3.10;84.38
24620;BME280;12763;55.802;37.404;2022-12-18T07:02:22;99155.06;;;-2.82;85.02
24620;BME280;12763;55.802;37.404;2022-12-18T07:04:50;99173.25;;;-2.94;83.87
24620;BME280;12763;55.802;37.404;2022-12-18T07:07:16;99180.38;;;-2.93;84.67
24620;BME280;12763;55.802;37.404;2022-12-18T07:09:42;99180.50;;;-2.75;83.76
24620;BME280;12763;55.802;37.404;2022-12-18T07:12:08;99186.75;;;-2.75;82.22
24620;BME280;12763;55.802;37.404;2022-12-18T07:14:33;99182.78;;;-2.71;82.69
24620;BME280;12763;55.802;37.404;2022-12-18T07:16:59;99184.75;;;-2.63;82.88
24620;BME280;12763;55.802;37.404;2022-12-18T07:19:25;99185.00;;;-2.57;82.56
24620;BME280;12763;55.802;37.404;2022-12-18T07:21:51;99193.16;;;-2.85;82.03
24620;BME280;12763;55.802;37.404;2022-12-18T07:24:17;99210.31;;;-2.48;81.39
24620;BME280;12763;55.802;37.404;2022-12-18T07:26:45;99211.97;;;-2.18;80.71
24620;BME280;12763;55.802;37.404;2022-12-18T07:29:10;99222.56;;;-2.44;80.43
24620;BME280;12763;55.802;37.404;2022-12-18T07:31:36;99229.63;;;-2.33;80.68
24620;BME280;12763;55.802;37.404;2022-12-18T07:34:02;99221.97;;;-2.48;80.13
24620;BME280;12763;55.802;37.404;2022-12-18T07:36:27;99223.41;;;-2.72;79.81
24620;BME280;12763;55.802;37.404;2022-12-18T07:38:53;99225.97;;;-2.80;81.45
24620;BME280;12763;55.802;37.404;2022-12-18T07:41:19;99232.22;;;-2.42;81.19
24620;BME280;12763;55.802;37.404;2022-12-18T07:43:45;99220.66;;;-2.24;80.12
24620;BME280;12763;55.802;37.404;2022-12-18T07:46:12;99224.25;;;-2.53;80.15
24620;BME280;12763;55.802;37.404;2022-12-18T07:48:42;99229.66;;;-2.53;80.13
24620;BME280;12763;55.802;37.404;2022-12-18T07:51:08;99222.09;;;-2.40;79.98
24620;BME280;12763;55.802;37.404;2022-12-18T07:53:35;99217.44;;;-2.38;80.24
24620;BME280;12763;55.802;37.404;2022-12-18T07:56:07;99221.72;;;-2.54;80.42
24620;BME280;12763;55.802;37.404;2022-12-18T07:58:33;99235.63;;;-2.40;79.97
24620;BME280;12763;55.802;37.404;2022-12-18T08:01:17;99242.16;;;-2.32;79.76
24620;BME280;12763;55.802;37.404;2022-12-18T08:03:42;99220.84;;;-2.45;79.78
24620;BME280;12763;55.802;37.404;2022-12-18T08:06:09;99237.16;;;-2.27;80.23
24620;BME280;12763;55.802;37.404;2022-12-18T08:08:35;99250.69;;;-2.37;80.01
24620;BME280;12763;55.802;37.404;2022-12-18T08:11:01;99241.59;;;-2.46;80.15
24620;BME280;12763;55.802;37.404;2022-12-18T08:13:27;99252.41;;;-2.46;81.98
24620;BME280;12763;55.802;37.404;2022-12-18T08:16:02;99264.91;;;-2.25;82.32
24620;BME280;12763;55.802;37.404;2022-12-18T08:18:29;99276.53;;;-2.15;80.70
24620;BME280;12763;55.802;37.404;2022-12-18T08:20:55;99286.25;;;-2.22;81.58
24620;BME280;12763;55.802;37.404;2022-12-18T08:23:21;99297.63;;;-2.19;80.43
24620;BME280;12763;55.802;37.404;2022-12-18T08:25:47;99301.63;;;-2.32;81.35
24620;BME280;12763;55.802;37.404;2022-12-18T08:28:13;99309.72;;;-2.32;81.63
24620;BME280;12763;55.802;37.404;2022-12-18T08:30:38;99305.28;;;-2.14;81.33
24620;BME280;12763;55.802;37.404;2022-12-18T08:33:04;99308.81;;;-2.04;80.78
24620;BME280;12763;55.802;37.404;2022-12-18T08:35:30;99315.41;;;-2.16;81.10
24620;BME280;12763;55.802;37.404;2022-12-18T08:37:59;99318.25;;;-2.08;81.79
24620;BME280;12763;55.802;37.404;2022-12-18T08:40:25;99318.94;;;-2.06;81.42
24620;BME280;12763;55.802;37.404;2022-12-18T08:42:51;99322.09;;;-2.11;81.95
24620;BME280;12763;55.802;37.404;2022-12-18T08:45:35;99324.34;;;-1.97;80.80
24620;BME280;12763;55.802;37.404;2022-12-18T08:48:01;99313.22;;;-1.84;81.17
24620;BME280;12763;55.802;37.404;2022-12-18T08:50:27;99311.84;;;-2.07;81.59
24620;BME280;12763;55.802;37.404;2022-12-18T08:52:52;99308.72;;;-2.31;82.21
24620;BME280;12763;55.802;37.404;2022-12-18T08:55:18;99321.81;;;-2.27;82.74
24620;BME280;12763;55.802;37.404;2022-12-18T08:57:48;99329.03;;;-1.89;82.04
24620;BME280;12763;55.802;37.404;2022-12-18T09:00:15;99323.94;;;-2.11;82.51
24620;BME280;12763;55.802;37.404;2022-12-18T09:02:41;99318.97;;;-2.25;83.60
24620;BME280;12763;55.802;37.404;2022-12-18T09:05:06;99322.63;;;-1.98;83.38
24620;BME280;12763;55.802;37.404;2022-12-18T09:07:32;99323.81;;;-2.19;84.14
24620;BME280;12763;55.802;37.404;2022-12-18T09:09:58;99326.63;;;-2.11;83.87
24620;BME280;12763;55.802;37.404;2022-12-18T09:12:23;99327.50;;;-2.11;83.42
24620;BME280;12763;55.802;37.404;2022-12-18T09:14:49;99338.59;;;-2.14;83.78
24620;BME280;12763;55.802;37.404;2022-12-18T09:17:15;99324.81;;;-2.49;85.13
24620;BME280;12763;55.802;37.404;2022-12-18T09:19:40;99334.63;;;-2.39;85.42
24620;BME280;12763;55.802;37.404;2022-12-18T09:22:06;99335.75;;;-2.31;85.03
24620;BME280;12763;55.802;37.404;2022-12-18T09:24:32;99340.72;;;-2.17;85.05
24620;BME280;12763;55.802;37.404;2022-12-18T09:26:58;99352.84;;;-2.21;84.98
24620;BME280;12763;55.802;37.404;2022-12-18T09:29:24;99359.63;;;-1.98;84.42
24620;BME280;12763;55.802;37.404;2022-12-18T09:31:50;99366.63;;;-2.15;84.03
24620;BME280;12763;55.802;37.404;2022-12-18T09:34:16;99384.13;;;-2.00;83.69
24620;BME280;12763;55.802;37.404;2022-12-18T09:36:42;99390.81;;;-2.13;83.86
24620;BME280;12763;55.802;37.404;2022-12-18T09:39:08;99400.47;;;-2.01;83.70
24620;BME280;12763;55.802;37.404;2022-12-18T09:41:46;99393.78;;;-2.26;85.15
24620;BME280;12763;55.802;37.404;2022-12-18T09:44:29;99402.91;;;-2.27;84.59
24620;BME280;12763;55.802;37.404;2022-12-18T09:47:12;99401.47;;;-2.12;85.48
24620;BME280;12763;55.802;37.404;2022-12-18T09:49:45;99401.78;;;-2.05;85.06
24620;BME280;12763;55.802;37.404;2022-12-18T09:52:24;99415.56;;;-1.99;84.12
24620;BME280;12763;55.802;37.404;2022-12-18T09:55:10;99412.88;;;-2.08;83.84
24620;BME280;12763;55.802;37.404;2022-12-18T09:57:40;99410.88;;;-2.16;84.65
24620;BME280;12763;55.802;37.404;2022-12-18T10:00:22;99403.75;;;-2.26;85.37
24620;BME280;12763;55.802;37.404;2022-12-18T10:02:48;99417.53;;;-2.49;85.67
24620;BME280;12763;55.802;37.404;2022-12-18T10:05:28;99421.09;;;-2.29;86.15
24620;BME280;12763;55.802;37.404;2022-12-18T10:08:05;99423.25;;;-2.32;86.20
24620;BME280;12763;55.802;37.404;2022-12-18T10:10:57;99420.25;;;-2.39;86.16
24620;BME280;12763;55.802;37.404;2022-12-18T10:13:38;99430.78;;;-2.17;86.18
24620;BME280;12763;55.802;37.404;2022-12-18T10:21:48;99428.94;;;-2.35;86.86
24620;BME280;12763;55.802;37.404;2022-12-18T10:24:54;99431.88;;;-2.48;87.76
24620;BME280;12763;55.802;37.404;2022-12-18T10:27:17;99423.38;;;-2.34;87.15
24620;BME280;12763;55.802;37.404;2022-12-18T10:29:44;99429.00;;;-2.56;87.42
24620;BME280;12763;55.802;37.404;2022-12-18T10:32:21;99417.38;;;-2.47;87.53
24620;BME280;12763;55.802;37.404;2022-12-18T10:34:48;99435.91;;;-2.33;86.68
24620;BME280;12763;55.802;37.404;2022-12-18T10:37:20;99414.63;;;-2.66;87.25
24620;BME280;12763;55.802;37.404;2022-12-18T10:40:07;99429.06;;;-2.47;87.29
24620;BME280;12763;55.802;37.404;2022-12-18T10:42:33;99438.56;;;-2.43;86.99
24620;BME280;12763;55.802;37.404;2022-12-18T10:45:11;99432.75;;;-2.48;87.95
24620;BME280;12763;55.802;37.404;2022-12-18T10:47:43;99441.91;;;-2.29;88.62
24620;BME280;12763;55.802;37.404;2022-12-18T10:50:20;99447.09;;;-2.47;88.80
24620;BME280;12763;55.802;37.404;2022-12-18T10:53:00;99454.03;;;-2.64;89.35
24620;BME280;12763;55.802;37.404;2022-12-18T10:55:31;99457.97;;;-2.68;90.12
24620;BME280;12763;55.802;37.404;2022-12-18T10:58:19;99460.84;;;-2.69;89.91
24620;BME280;12763;55.802;37.404;2022-12-18T11:01:14;99476.50;;;-2.54;89.29
24620;BME280;12763;55.802;37.404;2022-12-18T11:03:59;99487.38;;;-2.44;89.24
24620;BME280;12763;55.802;37.404;2022-12-18T11:06:26;99493.97;;;-2.27;88.93
24620;BME280;12763;55.802;37.404;2022-12-18T11:09:06;99484.34;;;-2.51;88.77
24620;BME280;12763;55.802;37.404;2022-12-18T11:11:49;99498.78;;;-2.31;88.33
24620;BME280;12763;55.802;37.404;2022-12-18T11:14:20;99500.13;;;-2.56;88.93
24620;BME280;12763;55.802;37.404;2022-12-18T11:16:49;99500.28;;;-2.48;89.52
24620;BME280;12763;55.802;37.404;2022-12-18T11:19:36;99505.84;;;-2.49;88.79
24620;BME280;12763;55.802;37.404;2022-12-18T11:22:20;99498.72;;;-2.50;88.96
24620;BME280;12763;55.802;37.404;2022-12-18T11:24:58;99505.88;;;-2.40;89.12
24620;BME280;12763;55.802;37.404;2022-12-18T11:27:24;99499.84;;;-2.53;89.13
24620;BME280;12763;55.802;37.404;2022-12-18T11:29:51;99502.34;;;-2.70;89.43
24620;BME280;12763;55.802;37.404;2022-12-18T11:32:31;99505.44;;;-2.75;89.74
24620;BME280;12763;55.802;37.404;2022-12-18T11:35:10;99520.94;;;-2.47;89.42
24620;BME280;12763;55.802;37.404;2022-12-18T11:37:39;99515.91;;;-2.51;88.42
24620;BME280;12763;55.802;37.404;2022-12-18T11:40:17;99525.72;;;-2.60;89.25
24620;BME280;12763;55.802;37.404;2022-12-18T11:42:54;99512.34;;;-2.61;87.79
24620;BME280;12763;55.802;37.404;2022-12-18T11:45:29;99524.53;;;-2.67;88.09
24620;BME280;12763;55.802;37.404;2022-12-18T11:53:02;99524.88;;;-2.60;88.32
24620;BME280;12763;55.802;37.404;2022-12-18T11:58:32;99548.94;;;-2.48;88.15
24620;BME280;12763;55.802;37.404;2022-12-18T12:04:46;99557.75;;;-2.46;88.35
24620;BME280;12763;55.802;37.404;2022-12-18T12:07:25;99574.13;;;-2.47;88.49
24620;BME280;12763;55.802;37.404;2022-12-18T12:16:03;99600.13;;;-2.76;89.85
24620;BME280;12763;55.802;37.404;2022-12-18T12:18:51;99611.31;;;-2.60;89.77
24620;BME280;12763;55.802;37.404;2022-12-18T12:21:40;99595.13;;;-2.51;88.85
24620;BME280;12763;55.802;37.404;2022-12-18T12:24:28;99588.31;;;-2.75;90.12
24620;BME280;12763;55.802;37.404;2022-12-18T12:27:20;99598.78;;;-2.61;89.65
24620;BME280;12763;55.802;37.404;2022-12-18T12:38:21;99625.88;;;-2.52;88.67
24620;BME280;12763;55.802;37.404;2022-12-18T12:41:02;99633.22;;;-2.54;89.10
24620;BME280;12763;55.802;37.404;2022-12-18T12:43:42;99632.69;;;-2.48;87.74
24620;BME280;12763;55.802;37.404;2022-12-18T12:46:12;99646.94;;;-2.46;89.11
24620;BME280;12763;55.802;37.404;2022-12-18T12:48:48;99655.59;;;-2.72;89.38
24620;BME280;12763;55.802;37.404;2022-12-18T12:51:21;99656.78;;;-2.65;89.13
24620;BME280;12763;55.802;37.404;2022-12-18T12:53:48;99654.47;;;-2.70;89.02
24620;BME280;12763;55.802;37.404;2022-12-18T12:56:17;99669.00;;;-2.71;89.60
24620;BME280;12763;55.802;37.404;2022-12-18T13:13:19;99716.41;;;-2.37;88.90
24620;BME280;12763;55.802;37.404;2022-12-18T13:16:06;99702.00;;;-2.16;88.10
24620;BME280;12763;55.802;37.404;2022-12-18T13:18:33;99727.47;;;-2.40;88.94
24620;BME280;12763;55.802;37.404;2022-12-18T13:34:23;99750.75;;;-2.27;91.21
24620;BME280;12763;55.802;37.404;2022-12-18T13:36:49;99742.69;;;-2.59;90.57
24620;BME280;12763;55.802;37.404;2022-12-18T13:41:46;99779.94;;;-2.63;90.18
24620;BME280;12763;55.802;37.404;2022-12-18T13:46:50;99773.53;;;-2.82;89.75
24620;BME280;12763;55.802;37.404;2022-12-18T13:51:54;99788.22;;;-2.75;89.17
24620;BME280;12763;55.802;37.404;2022-12-18T13:54:34;99797.94;;;-2.52;87.64
24620;BME280;12763;55.802;37.404;2022-12-18T13:57:01;99791.00;;;-2.98;87.41
24620;BME280;12763;55.802;37.404;2022-12-18T13:59:35;99798.91;;;-2.74;87.15
24620;BME280;12763;55.802;37.404;2022-12-18T14:02:26;99793.25;;;-2.71;86.53
24620;BME280;12763;55.802;37.404;2022-12-18T14:04:53;99809.22;;;-2.47;85.94
24620;BME280;12763;55.802;37.404;2022-12-18T14:07:25;99819.38;;;-2.40;85.24
24620;BME280;12763;55.802;37.404;2022-12-18T14:09:53;99830.97;;;-2.49;84.84
24620;BME280;12763;55.802;37.404;2022-12-18T14:12:25;99826.56;;;-2.50;84.82
24620;BME280;12763;55.802;37.404;2022-12-18T14:15:34;99834.19;;;-2.55;85.51
24620;BME280;12763;55.802;37.404;2022-12-18T14:20:46;99847.75;;;-2.66;86.55
24620;BME280;12763;55.802;37.404;2022-12-18T14:23:35;99840.50;;;-2.65;85.62
24620;BME280;12763;55.802;37.404;2022-12-18T14:26:19;99867.91;;;-2.81;85.98
24620;BME280;12763;55.802;37.404;2022-12-18T14:28:46;99866.09;;;-2.91;85.32
24620;BME280;12763;55.802;37.404;2022-12-18T14:31:20;99864.22;;;-2.69;85.06
24620;BME280;12763;55.802;37.404;2022-12-18T14:33:47;99861.25;;;-2.66;85.17
24620;BME280;12763;55.802;37.404;2022-12-18T14:36:18;99870.94;;;-2.63;84.71